sensor_id;sensor_type;location;lat;lon;timestamp;P1;durP1;ratioP1;P2;durP2;ratioP2
8044;SDS011;4065;48.754;9.982;2023-06-01T00:01:27;9.15;;;5.03;;
8044;SDS011;4065;48.754;9.982;2023-06-01T00:04:53;6.28;;;4.43;;
8044;SDS011;4065;48.754;9.982;2023-06-01T00:08:15;9.05;;;5.15;;
8044;SDS011;4065;48.754;9.982;2023-06-01T00:11:37;8.48;;;5.22;;
8044;SDS011;4065;48.754;9.982;2023-06-01T00:15:00;8.45;;;4.85;;
8044;SDS011;4065;48.754;9.982;2023-06-01T00:18:24;8.70;;;4.93;;
8044;SDS011;4065;48.754;9.982;2023-06-01T00:21:47;7.55;;;5.10;;
8044;SDS011;4065;48.754;9.982;2023-06-01T00:25:09;6.00;;;4.88;;
8044;SDS011;4065;48.754;9.982;2023-06-01T00:28:31;5.57;;;4.65;;
8044;SDS011;4065;48.754;9.982;2023-06-01T00:31:55;6.65;;;5.10;;
8044;SDS011;4065;48.754;9.982;2023-06-01T00:35:16;6.00;;;4.88;;
8044;SDS011;4065;48.754;9.982;2023-06-01T00:38:38;8.75;;;4.57;;
8044;SDS011;4065;48.754;9.982;2023-06-01T00:42:00;7.85;;;5.15;;
8044;SDS011;4065;48.754;9.982;2023-06-01T00:45:22;6.82;;;5.00;;
8044;SDS011;4065;48.754;9.982;2023-06-01T00:48:45;7.22;;;4.85;;
8044;SDS011;4065;48.754;9.982;2023-06-01T00:52:07;11.70;;;4.82;;
8044;SDS011;4065;48.754;9.982;2023-06-01T00:55:30;7.90;;;5.05;;
8044;SDS011;4065;48.754;9.982;2023-06-01T00:58:52;10.15;;;5.50;;
8044;SDS011;4065;48.754;9.982;2023-06-01T01:02:14;10.68;;;5.22;;
8044;SDS011;4065;48.754;9.982;2023-06-01T01:05:40;8.30;;;5.20;;
8044;SDS011;4065;48.754;9.982;2023-06-01T01:09:10;6.40;;;4.53;;
8044;SDS011;4065;48.754;9.982;2023-06-01T01:12:38;6.82;;;4.82;;
8044;SDS011;4065;48.754;9.982;2023-06-01T01:16:07;7.25;;;4.97;;
8044;SDS011;4065;48.754;9.982;2023-06-01T01:19:51;7.32;;;4.93;;
8044;SDS011;4065;48.754;9.982;2023-06-01T01:23:18;6.40;;;4.97;;
8044;SDS011;4065;48.754;9.982;2023-06-01T01:27:01;7.80;;;4.90;;
8044;SDS011;4065;48.754;9.982;2023-06-01T01:30:30;7.75;;;5.22;;
8044;SDS011;4065;48.754;9.982;2023-06-01T01:33:53;6.57;;;5.07;;
8044;SDS011;4065;48.754;9.982;2023-06-01T01:37:16;7.72;;;4.82;;
8044;SDS011;4065;48.754;9.982;2023-06-01T01:40:38;8.52;;;5.07;;
8044;SDS011;4065;48.754;9.982;2023-06-01T01:44:00;6.00;;;5.10;;
8044;SDS011;4065;48.754;9.982;2023-06-01T01:47:27;5.55;;;4.93;;
8044;SDS011;4065;48.754;9.982;2023-06-01T01:50:56;6.75;;;4.85;;
8044;SDS011;4065;48.754;9.982;2023-06-01T01:54:20;8.10;;;4.70;;
8044;SDS011;4065;48.754;9.982;2023-06-01T01:57:43;6.63;;;4.38;;
8044;SDS011;4065;48.754;9.982;2023-06-01T02:01:05;7.97;;;4.80;;
8044;SDS011;4065;48.754;9.982;2023-06-01T02:04:30;7.82;;;5.43;;
8044;SDS011;4065;48.754;9.982;2023-06-01T02:07:52;7.22;;;5.18;;
8044;SDS011;4065;48.754;9.982;2023-06-01T02:11:14;7.05;;;4.75;;
8044;SDS011;4065;48.754;9.982;2023-06-01T02:14:36;8.68;;;5.65;;
8044;SDS011;4065;48.754;9.982;2023-06-01T02:17:58;5.93;;;5.20;;
8044;SDS011;4065;48.754;9.982;2023-06-01T02:21:21;7.00;;;5.30;;
8044;SDS011;4065;48.754;9.982;2023-06-01T02:24:43;5.93;;;4.63;;
8044;SDS011;4065;48.754;9.982;2023-06-01T02:28:05;7.88;;;4.95;;
8044;SDS011;4065;48.754;9.982;2023-06-01T02:31:27;7.53;;;5.28;;
8044;SDS011;4065;48.754;9.982;2023-06-01T02:34:49;8.80;;;5.47;;
8044;SDS011;4065;48.754;9.982;2023-06-01T02:38:12;6.88;;;5.50;;
8044;SDS011;4065;48.754;9.982;2023-06-01T02:41:35;7.43;;;5.32;;
8044;SDS011;4065;48.754;9.982;2023-06-01T02:44:57;7.13;;;5.57;;
8044;SDS011;4065;48.754;9.982;2023-06-01T02:48:19;5.38;;;4.85;;
8044;SDS011;4065;48.754;9.982;2023-06-01T02:51:41;6.40;;;5.38;;
8044;SDS011;4065;48.754;9.982;2023-06-01T02:55:04;8.63;;;5.57;;
8044;SDS011;4065;48.754;9.982;2023-06-01T02:58:27;8.27;;;5.05;;
8044;SDS011;4065;48.754;9.982;2023-06-01T03:01:51;8.05;;;5.68;;
8044;SDS011;4065;48.754;9.982;2023-06-01T03:05:13;6.80;;;5.15;;
8044;SDS011;4065;48.754;9.982;2023-06-01T03:08:35;9.90;;;5.95;;
8044;SDS011;4065;48.754;9.982;2023-06-01T03:11:58;9.77;;;6.00;;
8044;SDS011;4065;48.754;9.982;2023-06-01T03:15:24;8.70;;;5.53;;
8044;SDS011;4065;48.754;9.982;2023-06-01T03:18:50;6.47;;;5.70;;
8044;SDS011;4065;48.754;9.982;2023-06-01T03:22:15;9.15;;;5.63;;
8044;SDS011;4065;48.754;9.982;2023-06-01T03:25:37;6.20;;;5.22;;
8044;SDS011;4065;48.754;9.982;2023-06-01T03:29:00;8.30;;;5.13;;
8044;SDS011;4065;48.754;9.982;2023-06-01T03:32:22;7.30;;;5.78;;
8044;SDS011;4065;48.754;9.982;2023-06-01T03:35:44;8.63;;;5.75;;
8044;SDS011;4065;48.754;9.982;2023-06-01T03:39:06;6.25;;;5.32;;
8044;SDS011;4065;48.754;9.982;2023-06-01T03:42:28;7.53;;;5.75;;
8044;SDS011;4065;48.754;9.982;2023-06-01T03:45:51;6.35;;;5.75;;
8044;SDS011;4065;48.754;9.982;2023-06-01T03:49:16;8.43;;;6.28;;
8044;SDS011;4065;48.754;9.982;2023-06-01T03:52:38;9.50;;;6.13;;
8044;SDS011;4065;48.754;9.982;2023-06-01T03:56:00;8.40;;;5.90;;
8044;SDS011;4065;48.754;9.982;2023-06-01T03:59:23;7.72;;;5.65;;
8044;SDS011;4065;48.754;9.982;2023-06-01T04:02:48;7.20;;;5.90;;
8044;SDS011;4065;48.754;9.982;2023-06-01T04:06:12;5.88;;;4.78;;
8044;SDS011;4065;48.754;9.982;2023-06-01T04:09:37;7.05;;;6.18;;
8044;SDS011;4065;48.754;9.982;2023-06-01T04:12:59;7.88;;;6.43;;
8044;SDS011;4065;48.754;9.982;2023-06-01T04:16:21;7.45;;;6.18;;
8044;SDS011;4065;48.754;9.982;2023-06-01T04:19:46;9.00;;;6.05;;
8044;SDS011;4065;48.754;9.982;2023-06-01T04:23:08;6.70;;;5.80;;
8044;SDS011;4065;48.754;9.982;2023-06-01T04:26:30;7.93;;;6.18;;
8044;SDS011;4065;48.754;9.982;2023-06-01T04:29:52;7.65;;;6.03;;
8044;SDS011;4065;48.754;9.982;2023-06-01T04:33:14;8.27;;;6.05;;
8044;SDS011;4065;48.754;9.982;2023-06-01T04:36:39;8.88;;;5.35;;
8044;SDS011;4065;48.754;9.982;2023-06-01T04:40:05;8.43;;;6.40;;
8044;SDS011;4065;48.754;9.982;2023-06-01T04:43:34;10.45;;;5.85;;
8044;SDS011;4065;48.754;9.982;2023-06-01T04:46:58;14.40;;;6.53;;
8044;SDS011;4065;48.754;9.982;2023-06-01T04:50:25;8.98;;;6.35;;
8044;SDS011;4065;48.754;9.982;2023-06-01T04:53:51;9.32;;;6.05;;
8044;SDS011;4065;48.754;9.982;2023-06-01T04:57:13;10.35;;;6.72;;
8044;SDS011;4065;48.754;9.982;2023-06-01T05:00:35;8.80;;;6.20;;
8044;SDS011;4065;48.754;9.982;2023-06-01T05:03:57;10.57;;;6.18;;
8044;SDS011;4065;48.754;9.982;2023-06-01T05:07:19;9.00;;;5.80;;
8044;SDS011;4065;48.754;9.982;2023-06-01T05:10:45;8.02;;;5.88;;
8044;SDS011;4065;48.754;9.982;2023-06-01T05:14:07;7.93;;;5.47;;
8044;SDS011;4065;48.754;9.982;2023-06-01T05:17:31;6.43;;;5.38;;
8044;SDS011;4065;48.754;9.982;2023-06-01T05:20:52;6.43;;;5.32;;
8044;SDS011;4065;48.754;9.982;2023-06-01T05:24:14;8.75;;;6.07;;
8044;SDS011;4065;48.754;9.982;2023-06-01T05:27:38;9.85;;;5.70;;
8044;SDS011;4065;48.754;9.982;2023-06-01T05:31:00;6.63;;;5.82;;
8044;SDS011;4065;48.754;9.982;2023-06-01T05:34:22;8.75;;;5.60;;
8044;SDS011;4065;48.754;9.982;2023-06-01T05:37:43;9.40;;;6.00;;
8044;SDS011;4065;48.754;9.982;2023-06-01T05:41:05;6.50;;;5.20;;
8044;SDS011;4065;48.754;9.982;2023-06-01T05:44:30;9.10;;;5.65;;
8044;SDS011;4065;48.754;9.982;2023-06-01T05:47:52;10.45;;;5.38;;
8044;SDS011;4065;48.754;9.982;2023-06-01T05:51:14;6.57;;;5.13;;
8044;SDS011;4065;48.754;9.982;2023-06-01T05:54:36;7.63;;;5.10;;
8044;SDS011;4065;48.754;9.982;2023-06-01T05:57:58;6.32;;;4.57;;
8044;SDS011;4065;48.754;9.982;2023-06-01T06:01:23;7.57;;;5.18;;
8044;SDS011;4065;48.754;9.982;2023-06-01T06:04:45;7.35;;;5.60;;
8044;SDS011;4065;48.754;9.982;2023-06-01T06:08:06;7.50;;;5.07;;
8044;SDS011;4065;48.754;9.982;2023-06-01T06:11:28;7.82;;;4.90;;
8044;SDS011;4065;48.754;9.982;2023-06-01T06:14:53;11.32;;;6.20;;
8044;SDS011;4065;48.754;9.982;2023-06-01T06:18:18;9.68;;;5.78;;
8044;SDS011;4065;48.754;9.982;2023-06-01T06:21:42;6.93;;;5.03;;
8044;SDS011;4065;48.754;9.982;2023-06-01T06:25:04;9.20;;;5.60;;
8044;SDS011;4065;48.754;9.982;2023-06-01T06:28:26;10.10;;;5.18;;
8044;SDS011;4065;48.754;9.982;2023-06-01T06:31:49;8.15;;;5.10;;
8044;SDS011;4065;48.754;9.982;2023-06-01T06:35:12;7.88;;;5.20;;
8044;SDS011;4065;48.754;9.982;2023-06-01T06:38:34;7.85;;;4.88;;
8044;SDS011;4065;48.754;9.982;2023-06-01T06:41:56;10.05;;;5.40;;
8044;SDS011;4065;48.754;9.982;2023-06-01T06:45:18;11.35;;;5.65;;
8044;SDS011;4065;48.754;9.982;2023-06-01T06:48:40;7.85;;;5.15;;
8044;SDS011;4065;48.754;9.982;2023-06-01T06:52:03;8.18;;;5.13;;
8044;SDS011;4065;48.754;9.982;2023-06-01T06:55:26;8.23;;;5.53;;
8044;SDS011;4065;48.754;9.982;2023-06-01T06:58:48;10.32;;;5.38;;
8044;SDS011;4065;48.754;9.982;2023-06-01T07:02:10;8.57;;;5.53;;
8044;SDS011;4065;48.754;9.982;2023-06-01T07:05:32;7.68;;;5.47;;
8044;SDS011;4065;48.754;9.982;2023-06-01T07:08:57;8.25;;;5.30;;
8044;SDS011;4065;48.754;9.982;2023-06-01T07:12:22;9.38;;;5.10;;
8044;SDS011;4065;48.754;9.982;2023-06-01T07:15:47;7.85;;;5.03;;
8044;SDS011;4065;48.754;9.982;2023-06-01T07:19:09;9.27;;;5.40;;
8044;SDS011;4065;48.754;9.982;2023-06-01T07:22:31;8.00;;;5.55;;
8044;SDS011;4065;48.754;9.982;2023-06-01T07:25:54;7.70;;;5.53;;
8044;SDS011;4065;48.754;9.982;2023-06-01T07:29:16;11.00;;;5.70;;
8044;SDS011;4065;48.754;9.982;2023-06-01T07:32:38;9.90;;;5.43;;
8044;SDS011;4065;48.754;9.982;2023-06-01T07:36:00;8.82;;;5.28;;
8044;SDS011;4065;48.754;9.982;2023-06-01T07:39:22;8.13;;;5.65;;
8044;SDS011;4065;48.754;9.982;2023-06-01T07:42:46;6.63;;;5.57;;
8044;SDS011;4065;48.754;9.982;2023-06-01T07:46:08;10.73;;;5.57;;
8044;SDS011;4065;48.754;9.982;2023-06-01T07:49:30;6.28;;;4.97;;
8044;SDS011;4065;48.754;9.982;2023-06-01T07:52:55;8.27;;;5.32;;
8044;SDS011;4065;48.754;9.982;2023-06-01T07:56:18;6.68;;;4.97;;
8044;SDS011;4065;48.754;9.982;2023-06-01T07:59:41;8.70;;;5.80;;
8044;SDS011;4065;48.754;9.982;2023-06-01T08:03:05;9.75;;;5.57;;
8044;SDS011;4065;48.754;9.982;2023-06-01T08:06:28;8.32;;;5.55;;
8044;SDS011;4065;48.754;9.982;2023-06-01T08:09:55;10.13;;;5.50;;
8044;SDS011;4065;48.754;9.982;2023-06-01T08:13:20;10.93;;;5.70;;
8044;SDS011;4065;48.754;9.982;2023-06-01T08:16:44;9.45;;;5.90;;
8044;SDS011;4065;48.754;9.982;2023-06-01T08:20:07;9.20;;;5.88;;
8044;SDS011;4065;48.754;9.982;2023-06-01T08:23:32;7.35;;;5.82;;
8044;SDS011;4065;48.754;9.982;2023-06-01T08:26:55;8.80;;;5.97;;
8044;SDS011;4065;48.754;9.982;2023-06-01T08:30:17;8.32;;;5.75;;
8044;SDS011;4065;48.754;9.982;2023-06-01T08:33:41;11.05;;;6.25;;
8044;SDS011;4065;48.754;9.982;2023-06-01T08:37:03;10.32;;;5.45;;
8044;SDS011;4065;48.754;9.982;2023-06-01T08:40:25;11.00;;;5.65;;
8044;SDS011;4065;48.754;9.982;2023-06-01T08:43:50;8.60;;;5.68;;
8044;SDS011;4065;48.754;9.982;2023-06-01T08:47:16;8.70;;;5.90;;
8044;SDS011;4065;48.754;9.982;2023-06-01T08:50:39;10.27;;;6.10;;
8044;SDS011;4065;48.754;9.982;2023-06-01T08:54:02;9.40;;;6.20;;
8044;SDS011;4065;48.754;9.982;2023-06-01T08:57:25;9.13;;;5.90;;
8044;SDS011;4065;48.754;9.982;2023-06-01T09:00:48;9.27;;;5.97;;
8044;SDS011;4065;48.754;9.982;2023-06-01T09:04:10;10.43;;;6.30;;
8044;SDS011;4065;48.754;9.982;2023-06-01T09:07:35;9.70;;;6.20;;
8044;SDS011;4065;48.754;9.982;2023-06-01T09:10:57;10.38;;;5.88;;
8044;SDS011;4065;48.754;9.982;2023-06-01T09:14:20;8.90;;;5.78;;
8044;SDS011;4065;48.754;9.982;2023-06-01T09:17:43;8.50;;;5.50;;
8044;SDS011;4065;48.754;9.982;2023-06-01T09:21:10;8.55;;;4.97;;
8044;SDS011;4065;48.754;9.982;2023-06-01T09:24:37;7.85;;;5.63;;
8044;SDS011;4065;48.754;9.982;2023-06-01T09:27:59;11.32;;;5.40;;
8044;SDS011;4065;48.754;9.982;2023-06-01T09:31:35;8.07;;;5.32;;
8044;SDS011;4065;48.754;9.982;2023-06-01T09:35:01;9.93;;;6.10;;
8044;SDS011;4065;48.754;9.982;2023-06-01T09:38:27;9.60;;;6.57;;
8044;SDS011;4065;48.754;9.982;2023-06-01T09:41:52;9.75;;;5.75;;
8044;SDS011;4065;48.754;9.982;2023-06-01T09:45:15;9.10;;;5.78;;
8044;SDS011;4065;48.754;9.982;2023-06-01T09:48:39;7.38;;;5.80;;
8044;SDS011;4065;48.754;9.982;2023-06-01T09:52:11;9.88;;;5.75;;
8044;SDS011;4065;48.754;9.982;2023-06-01T09:55:36;7.85;;;5.70;;
8044;SDS011;4065;48.754;9.982;2023-06-01T09:59:19;9.15;;;5.80;;
8044;SDS011;4065;48.754;9.982;2023-06-01T10:02:42;8.63;;;5.78;;
8044;SDS011;4065;48.754;9.982;2023-06-01T10:06:04;8.02;;;5.63;;
8044;SDS011;4065;48.754;9.982;2023-06-01T10:09:30;10.95;;;5.82;;
8044;SDS011;4065;48.754;9.982;2023-06-01T10:12:53;11.50;;;6.38;;
8044;SDS011;4065;48.754;9.982;2023-06-01T10:16:17;8.32;;;5.40;;
8044;SDS011;4065;48.754;9.982;2023-06-01T10:19:42;8.15;;;5.72;;
8044;SDS011;4065;48.754;9.982;2023-06-01T10:23:05;8.95;;;5.93;;
8044;SDS011;4065;48.754;9.982;2023-06-01T10:26:27;7.30;;;5.22;;
8044;SDS011;4065;48.754;9.982;2023-06-01T10:29:57;9.45;;;5.82;;
8044;SDS011;4065;48.754;9.982;2023-06-01T10:33:23;8.10;;;5.80;;
8044;SDS011;4065;48.754;9.982;2023-06-01T10:37:14;9.05;;;5.45;;
8044;SDS011;4065;48.754;9.982;2023-06-01T10:40:37;9.10;;;6.03;;
8044;SDS011;4065;48.754;9.982;2023-06-01T10:43:59;7.85;;;5.43;;
8044;SDS011;4065;48.754;9.982;2023-06-01T10:51:19;8.73;;;5.65;;
8044;SDS011;4065;48.754;9.982;2023-06-01T10:54:41;9.52;;;5.57;;
8044;SDS011;4065;48.754;9.982;2023-06-01T10:58:19;9.35;;;5.05;;
8044;SDS011;4065;48.754;9.982;2023-06-01T11:01:44;9.95;;;5.68;;
8044;SDS011;4065;48.754;9.982;2023-06-01T11:09:03;7.72;;;5.43;;
8044;SDS011;4065;48.754;9.982;2023-06-01T11:12:35;8.00;;;5.38;;
8044;SDS011;4065;48.754;9.982;2023-06-01T11:16:37;8.43;;;5.85;;
8044;SDS011;4065;48.754;9.982;2023-06-01T11:20:00;8.15;;;5.18;;
8044;SDS011;4065;48.754;9.982;2023-06-01T11:23:31;9.13;;;5.38;;
8044;SDS011;4065;48.754;9.982;2023-06-01T11:26:55;6.85;;;5.10;;
8044;SDS011;4065;48.754;9.982;2023-06-01T11:30:21;6.45;;;5.20;;
8044;SDS011;4065;48.754;9.982;2023-06-01T11:33:46;7.32;;;5.20;;
8044;SDS011;4065;48.754;9.982;2023-06-01T11:37:13;7.80;;;4.70;;
8044;SDS011;4065;48.754;9.982;2023-06-01T11:40:37;7.78;;;4.95;;
8044;SDS011;4065;48.754;9.982;2023-06-01T11:44:01;8.38;;;5.30;;
8044;SDS011;4065;48.754;9.982;2023-06-01T11:47:27;12.32;;;5.07;;
8044;SDS011;4065;48.754;9.982;2023-06-01T11:50:51;7.80;;;5.43;;
8044;SDS011;4065;48.754;9.982;2023-06-01T11:54:14;7.07;;;5.00;;
8044;SDS011;4065;48.754;9.982;2023-06-01T11:57:39;7.18;;;4.95;;
8044;SDS011;4065;48.754;9.982;2023-06-01T12:01:03;7.00;;;5.15;;
8044;SDS011;4065;48.754;9.982;2023-06-01T12:04:27;5.97;;;4.95;;
8044;SDS011;4065;48.754;9.982;2023-06-01T12:07:50;5.47;;;4.88;;
8044;SDS011;4065;48.754;9.982;2023-06-01T12:11:14;7.47;;;4.72;;
8044;SDS011;4065;48.754;9.982;2023-06-01T12:14:36;6.40;;;4.38;;
8044;SDS011;4065;48.754;9.982;2023-06-01T12:18:00;7.28;;;5.22;;
8044;SDS011;4065;48.754;9.982;2023-06-01T12:21:22;5.43;;;4.75;;
8044;SDS011;4065;48.754;9.982;2023-06-01T12:24:44;7.57;;;4.63;;
8044;SDS011;4065;48.754;9.982;2023-06-01T12:28:07;6.60;;;4.30;;
8044;SDS011;4065;48.754;9.982;2023-06-01T12:31:30;8.30;;;4.88;;
8044;SDS011;4065;48.754;9.982;2023-06-01T12:38:35;7.05;;;5.18;;
8044;SDS011;4065;48.754;9.982;2023-06-01T12:41:57;7.25;;;4.78;;
8044;SDS011;4065;48.754;9.982;2023-06-01T12:45:21;10.82;;;5.50;;
8044;SDS011;4065;48.754;9.982;2023-06-01T12:48:43;6.57;;;4.85;;
8044;SDS011;4065;48.754;9.982;2023-06-01T12:52:06;5.95;;;4.68;;
8044;SDS011;4065;48.754;9.982;2023-06-01T12:55:29;6.68;;;4.65;;
8044;SDS011;4065;48.754;9.982;2023-06-01T12:58:51;8.18;;;4.75;;
8044;SDS011;4065;48.754;9.982;2023-06-01T13:02:15;6.60;;;4.63;;
8044;SDS011;4065;48.754;9.982;2023-06-01T13:05:40;6.10;;;4.35;;
8044;SDS011;4065;48.754;9.982;2023-06-01T13:09:04;9.63;;;4.30;;
8044;SDS011;4065;48.754;9.982;2023-06-01T13:12:27;5.65;;;4.47;;
8044;SDS011;4065;48.754;9.982;2023-06-01T13:15:49;5.85;;;4.10;;
8044;SDS011;4065;48.754;9.982;2023-06-01T13:19:11;8.85;;;4.50;;
8044;SDS011;4065;48.754;9.982;2023-06-01T13:22:34;6.55;;;4.35;;
8044;SDS011;4065;48.754;9.982;2023-06-01T13:25:57;5.68;;;4.60;;
8044;SDS011;4065;48.754;9.982;2023-06-01T13:29:19;6.15;;;4.40;;
8044;SDS011;4065;48.754;9.982;2023-06-01T13:32:41;5.03;;;4.35;;
8044;SDS011;4065;48.754;9.982;2023-06-01T13:36:03;6.65;;;4.75;;
8044;SDS011;4065;48.754;9.982;2023-06-01T13:39:30;6.82;;;4.50;;
8044;SDS011;4065;48.754;9.982;2023-06-01T13:42:54;5.35;;;4.32;;
8044;SDS011;4065;48.754;9.982;2023-06-01T13:46:16;7.85;;;4.55;;
8044;SDS011;4065;48.754;9.982;2023-06-01T13:49:38;8.48;;;4.50;;
8044;SDS011;4065;48.754;9.982;2023-06-01T13:53:00;6.50;;;4.63;;
8044;SDS011;4065;48.754;9.982;2023-06-01T13:56:25;9.00;;;4.78;;
8044;SDS011;4065;48.754;9.982;2023-06-01T13:59:53;7.03;;;4.53;;
8044;SDS011;4065;48.754;9.982;2023-06-01T14:03:14;5.22;;;4.40;;
8044;SDS011;4065;48.754;9.982;2023-06-01T14:06:36;5.15;;;4.30;;
8044;SDS011;4065;48.754;9.982;2023-06-01T14:10:01;6.90;;;4.70;;
8044;SDS011;4065;48.754;9.982;2023-06-01T14:13:23;6.85;;;4.22;;
8044;SDS011;4065;48.754;9.982;2023-06-01T14:16:46;7.53;;;4.55;;
8044;SDS011;4065;48.754;9.982;2023-06-01T14:20:11;5.38;;;4.50;;
8044;SDS011;4065;48.754;9.982;2023-06-01T14:23:33;7.57;;;4.35;;
8044;SDS011;4065;48.754;9.982;2023-06-01T14:26:55;6.95;;;4.45;;
8044;SDS011;4065;48.754;9.982;2023-06-01T14:30:17;7.43;;;4.10;;
8044;SDS011;4065;48.754;9.982;2023-06-01T14:33:41;5.10;;;3.30;;
8044;SDS011;4065;48.754;9.982;2023-06-01T14:37:03;7.80;;;3.92;;
8044;SDS011;4065;48.754;9.982;2023-06-01T14:40:27;7.10;;;3.90;;
8044;SDS011;4065;48.754;9.982;2023-06-01T14:43:49;4.60;;;3.53;;
8044;SDS011;4065;48.754;9.982;2023-06-01T14:47:11;6.20;;;3.80;;
8044;SDS011;4065;48.754;9.982;2023-06-01T14:50:35;7.35;;;4.07;;
8044;SDS011;4065;48.754;9.982;2023-06-01T14:53:57;8.00;;;4.10;;
8044;SDS011;4065;48.754;9.982;2023-06-01T14:57:19;6.20;;;3.88;;
8044;SDS011;4065;48.754;9.982;2023-06-01T15:00:45;9.07;;;4.15;;
8044;SDS011;4065;48.754;9.982;2023-06-01T15:04:07;4.75;;;3.47;;
8044;SDS011;4065;48.754;9.982;2023-06-01T15:07:30;5.40;;;2.90;;
8044;SDS011;4065;48.754;9.982;2023-06-01T15:10:52;5.20;;;3.38;;
8044;SDS011;4065;48.754;9.982;2023-06-01T15:14:14;5.20;;;2.75;;
8044;SDS011;4065;48.754;9.982;2023-06-01T15:17:36;5.03;;;3.55;;
8044;SDS011;4065;48.754;9.982;2023-06-01T15:21:00;4.63;;;2.67;;
8044;SDS011;4065;48.754;9.982;2023-06-01T15:24:23;12.30;;;3.03;;
8044;SDS011;4065;48.754;9.982;2023-06-01T15:27:45;5.90;;;2.88;;
8044;SDS011;4065;48.754;9.982;2023-06-01T15:31:07;5.22;;;2.80;;
8044;SDS011;4065;48.754;9.982;2023-06-01T15:34:29;3.80;;;2.70;;
8044;SDS011;4065;48.754;9.982;2023-06-01T15:37:54;6.18;;;2.95;;
8044;SDS011;4065;48.754;9.982;2023-06-01T15:41:18;7.25;;;2.90;;
8044;SDS011;4065;48.754;9.982;2023-06-01T15:44:40;6.78;;;3.13;;
8044;SDS011;4065;48.754;9.982;2023-06-01T15:48:03;6.28;;;2.85;;
8044;SDS011;4065;48.754;9.982;2023-06-01T15:51:25;5.68;;;2.92;;
8044;SDS011;4065;48.754;9.982;2023-06-01T15:54:48;4.85;;;2.70;;
8044;SDS011;4065;48.754;9.982;2023-06-01T15:58:18;5.90;;;2.95;;
8044;SDS011;4065;48.754;9.982;2023-06-01T16:01:40;5.00;;;3.10;;
8044;SDS011;4065;48.754;9.982;2023-06-01T16:05:05;3.85;;;3.20;;
8044;SDS011;4065;48.754;9.982;2023-06-01T16:08:30;5.35;;;3.05;;
8044;SDS011;4065;48.754;9.982;2023-06-01T16:11:52;6.65;;;3.15;;
8044;SDS011;4065;48.754;9.982;2023-06-01T16:15:15;4.53;;;2.72;;
8044;SDS011;4065;48.754;9.982;2023-06-01T16:18:37;5.13;;;2.97;;
8044;SDS011;4065;48.754;9.982;2023-06-01T16:22:06;5.13;;;2.55;;
8044;SDS011;4065;48.754;9.982;2023-06-01T16:25:30;3.47;;;2.80;;
8044;SDS011;4065;48.754;9.982;2023-06-01T16:28:53;7.82;;;2.70;;
8044;SDS011;4065;48.754;9.982;2023-06-01T16:32:16;7.40;;;2.75;;
8044;SDS011;4065;48.754;9.982;2023-06-01T16:35:39;5.55;;;2.65;;
8044;SDS011;4065;48.754;9.982;2023-06-01T16:39:01;5.38;;;2.72;;
8044;SDS011;4065;48.754;9.982;2023-06-01T16:42:23;4.65;;;3.08;;
8044;SDS011;4065;48.754;9.982;2023-06-01T16:45:45;4.97;;;2.75;;
8044;SDS011;4065;48.754;9.982;2023-06-01T16:49:09;6.15;;;3.28;;
8044;SDS011;4065;48.754;9.982;2023-06-01T16:52:37;4.63;;;3.20;;
8044;SDS011;4065;48.754;9.982;2023-06-01T16:55:59;3.80;;;2.80;;
8044;SDS011;4065;48.754;9.982;2023-06-01T16:59:21;5.70;;;3.28;;
8044;SDS011;4065;48.754;9.982;2023-06-01T17:02:43;6.20;;;2.97;;
8044;SDS011;4065;48.754;9.982;2023-06-01T17:06:06;6.65;;;3.33;;
8044;SDS011;4065;48.754;9.982;2023-06-01T17:09:30;4.50;;;2.88;;
8044;SDS011;4065;48.754;9.982;2023-06-01T17:12:52;7.85;;;3.47;;
8044;SDS011;4065;48.754;9.982;2023-06-01T17:16:14;8.98;;;3.03;;
8044;SDS011;4065;48.754;9.982;2023-06-01T17:19:39;9.65;;;3.60;;
8044;SDS011;4065;48.754;9.982;2023-06-01T17:23:05;4.68;;;2.45;;
8044;SDS011;4065;48.754;9.982;2023-06-01T17:26:27;4.82;;;3.00;;
8044;SDS011;4065;48.754;9.982;2023-06-01T17:29:49;6.68;;;3.10;;
8044;SDS011;4065;48.754;9.982;2023-06-01T17:33:11;4.45;;;2.70;;
8044;SDS011;4065;48.754;9.982;2023-06-01T17:36:34;4.25;;;2.85;;
8044;SDS011;4065;48.754;9.982;2023-06-01T17:39:58;9.63;;;3.55;;
8044;SDS011;4065;48.754;9.982;2023-06-01T17:43:20;3.45;;;2.55;;
8044;SDS011;4065;48.754;9.982;2023-06-01T17:46:42;5.85;;;3.17;;
8044;SDS011;4065;48.754;9.982;2023-06-01T17:50:05;6.13;;;3.00;;
8044;SDS011;4065;48.754;9.982;2023-06-01T17:53:28;8.82;;;3.45;;
8044;SDS011;4065;48.754;9.982;2023-06-01T17:56:51;7.10;;;3.05;;
8044;SDS011;4065;48.754;9.982;2023-06-01T18:00:13;5.47;;;2.72;;
8044;SDS011;4065;48.754;9.982;2023-06-01T18:03:39;8.15;;;3.28;;
8044;SDS011;4065;48.754;9.982;2023-06-01T18:07:01;10.38;;;3.10;;
8044;SDS011;4065;48.754;9.982;2023-06-01T18:10:25;3.83;;;2.42;;
8044;SDS011;4065;48.754;9.982;2023-06-01T18:13:48;5.55;;;2.92;;
8044;SDS011;4065;48.754;9.982;2023-06-01T18:17:13;5.85;;;3.30;;
8044;SDS011;4065;48.754;9.982;2023-06-01T18:20:35;6.15;;;2.95;;
8044;SDS011;4065;48.754;9.982;2023-06-01T18:23:57;4.43;;;2.80;;
8044;SDS011;4065;48.754;9.982;2023-06-01T18:27:19;5.32;;;2.67;;
8044;SDS011;4065;48.754;9.982;2023-06-01T18:30:45;9.38;;;3.40;;
8044;SDS011;4065;48.754;9.982;2023-06-01T18:34:10;9.15;;;3.15;;
8044;SDS011;4065;48.754;9.982;2023-06-01T18:37:32;4.50;;;2.72;;
8044;SDS011;4065;48.754;9.982;2023-06-01T18:40:53;6.75;;;3.50;;
8044;SDS011;4065;48.754;9.982;2023-06-01T18:44:15;4.28;;;3.20;;
8044;SDS011;4065;48.754;9.982;2023-06-01T18:47:39;3.55;;;2.75;;
8044;SDS011;4065;48.754;9.982;2023-06-01T18:51:01;6.13;;;3.55;;
8044;SDS011;4065;48.754;9.982;2023-06-01T18:54:23;6.15;;;3.00;;
8044;SDS011;4065;48.754;9.982;2023-06-01T18:57:52;6.43;;;2.85;;
8044;SDS011;4065;48.754;9.982;2023-06-01T19:01:14;4.47;;;2.78;;
8044;SDS011;4065;48.754;9.982;2023-06-01T19:04:39;5.10;;;3.08;;
8044;SDS011;4065;48.754;9.982;2023-06-01T19:08:03;4.93;;;3.30;;
8044;SDS011;4065;48.754;9.982;2023-06-01T19:11:25;6.28;;;2.83;;
8044;SDS011;4065;48.754;9.982;2023-06-01T19:14:47;6.25;;;3.10;;
8044;SDS011;4065;48.754;9.982;2023-06-01T19:18:11;4.60;;;2.80;;
8044;SDS011;4065;48.754;9.982;2023-06-01T19:21:37;5.10;;;2.83;;
8044;SDS011;4065;48.754;9.982;2023-06-01T19:24:59;3.72;;;2.60;;
8044;SDS011;4065;48.754;9.982;2023-06-01T19:28:22;5.43;;;2.90;;
8044;SDS011;4065;48.754;9.982;2023-06-01T19:31:44;5.78;;;2.45;;
8044;SDS011;4065;48.754;9.982;2023-06-01T19:35:06;4.47;;;3.00;;
8044;SDS011;4065;48.754;9.982;2023-06-01T19:38:30;5.05;;;2.75;;
8044;SDS011;4065;48.754;9.982;2023-06-01T19:41:59;4.75;;;2.95;;
8044;SDS011;4065;48.754;9.982;2023-06-01T19:45:24;5.72;;;3.10;;
8044;SDS011;4065;48.754;9.982;2023-06-01T19:48:47;6.03;;;3.13;;
8044;SDS011;4065;48.754;9.982;2023-06-01T19:52:11;3.60;;;2.90;;
8044;SDS011;4065;48.754;9.982;2023-06-01T19:55:34;3.97;;;3.08;;
8044;SDS011;4065;48.754;9.982;2023-06-01T19:58:56;4.32;;;3.15;;
8044;SDS011;4065;48.754;9.982;2023-06-01T20:06:06;4.72;;;2.95;;
8044;SDS011;4065;48.754;9.982;2023-06-01T20:09:29;4.78;;;3.40;;
8044;SDS011;4065;48.754;9.982;2023-06-01T20:12:54;4.40;;;2.80;;
8044;SDS011;4065;48.754;9.982;2023-06-01T20:16:16;6.53;;;2.90;;
8044;SDS011;4065;48.754;9.982;2023-06-01T20:19:39;3.65;;;2.92;;
8044;SDS011;4065;48.754;9.982;2023-06-01T20:23:01;6.20;;;2.70;;
8044;SDS011;4065;48.754;9.982;2023-06-01T20:26:25;8.18;;;3.17;;
8044;SDS011;4065;48.754;9.982;2023-06-01T20:29:48;5.63;;;3.17;;
8044;SDS011;4065;48.754;9.982;2023-06-01T20:33:10;4.25;;;2.97;;
8044;SDS011;4065;48.754;9.982;2023-06-01T20:36:39;4.30;;;2.97;;
8044;SDS011;4065;48.754;9.982;2023-06-01T20:40:01;4.05;;;2.90;;
8044;SDS011;4065;48.754;9.982;2023-06-01T20:43:25;7.15;;;3.35;;
8044;SDS011;4065;48.754;9.982;2023-06-01T20:46:48;3.92;;;3.05;;
8044;SDS011;4065;48.754;9.982;2023-06-01T20:50:11;3.45;;;2.80;;
8044;SDS011;4065;48.754;9.982;2023-06-01T20:53:32;5.63;;;3.10;;
8044;SDS011;4065;48.754;9.982;2023-06-01T20:56:55;6.22;;;3.38;;
8044;SDS011;4065;48.754;9.982;2023-06-01T21:00:17;7.18;;;3.10;;
8044;SDS011;4065;48.754;9.982;2023-06-01T21:03:40;3.85;;;3.10;;
8044;SDS011;4065;48.754;9.982;2023-06-01T21:07:02;4.95;;;3.45;;
8044;SDS011;4065;48.754;9.982;2023-06-01T21:10:25;4.65;;;2.92;;
8044;SDS011;4065;48.754;9.982;2023-06-01T21:13:46;10.27;;;3.30;;
8044;SDS011;4065;48.754;9.982;2023-06-01T21:17:08;3.50;;;2.80;;
8044;SDS011;4065;48.754;9.982;2023-06-01T21:20:32;5.28;;;3.95;;